sensor_id;sensor_type;location;lat;lon;timestamp;P1;durP1;ratioP1;P2;durP2;ratioP2
37203;SDS011;23098;48.054;10.636;2024-03-07T00:00:13;13.35;;;6.78;;
37203;SDS011;23098;48.054;10.636;2024-03-07T00:02:40;12.65;;;6.40;;
37203;SDS011;23098;48.054;10.636;2024-03-07T00:05:06;12.00;;;6.78;;
37203;SDS011;23098;48.054;10.636;2024-03-07T00:07:33;11.95;;;6.75;;
37203;SDS011;23098;48.054;10.636;2024-03-07T00:09:59;12.75;;;6.82;;
37203;SDS011;23098;48.054;10.636;2024-03-07T00:12:28;11.55;;;6.55;;
37203;SDS011;23098;48.054;10.636;2024-03-07T00:14:54;12.77;;;7.30;;
37203;SDS011;23098;48.054;10.636;2024-03-07T00:17:20;10.95;;;6.85;;
37203;SDS011;23098;48.054;10.636;2024-03-07T00:19:46;11.95;;;6.82;;
37203;SDS011;23098;48.054;10.636;2024-03-07T00:22:12;13.25;;;6.68;;
37203;SDS011;23098;48.054;10.636;2024-03-07T00:24:39;12.35;;;6.80;;
37203;SDS011;23098;48.054;10.636;2024-03-07T00:27:05;13.68;;;6.65;;
37203;SDS011;23098;48.054;10.636;2024-03-07T00:29:31;12.68;;;6.70;;
37203;SDS011;23098;48.054;10.636;2024-03-07T00:32:00;12.48;;;6.85;;
37203;SDS011;23098;48.054;10.636;2024-03-07T00:34:26;12.63;;;6.65;;
37203;SDS011;23098;48.054;10.636;2024-03-07T00:36:51;12.57;;;7.10;;
37203;SDS011;23098;48.054;10.636;2024-03-07T00:39:17;14.23;;;7.20;;
37203;SDS011;23098;48.054;10.636;2024-03-07T00:41:44;12.82;;;6.90;;
37203;SDS011;23098;48.054;10.636;2024-03-07T00:44:10;13.30;;;6.95;;
37203;SDS011;23098;48.054;10.636;2024-03-07T00:46:36;12.63;;;7.18;;
37203;SDS011;23098;48.054;10.636;2024-03-07T00:49:02;12.05;;;6.72;;
37203;SDS011;23098;48.054;10.636;2024-03-07T00:51:28;13.52;;;6.88;;
37203;SDS011;23098;48.054;10.636;2024-03-07T00:53:54;13.20;;;7.35;;
37203;SDS011;23098;48.054;10.636;2024-03-07T00:56:20;12.77;;;7.38;;
37203;SDS011;23098;48.054;10.636;2024-03-07T00:58:48;13.32;;;7.10;;
37203;SDS011;23098;48.054;10.636;2024-03-07T01:01:13;12.07;;;6.65;;
37203;SDS011;23098;48.054;10.636;2024-03-07T01:03:40;14.30;;;7.10;;
37203;SDS011;23098;48.054;10.636;2024-03-07T01:06:06;12.52;;;6.45;;
37203;SDS011;23098;48.054;10.636;2024-03-07T01:08:33;12.98;;;6.97;;
37203;SDS011;23098;48.054;10.636;2024-03-07T01:11:00;12.27;;;6.93;;
37203;SDS011;23098;48.054;10.636;2024-03-07T01:13:25;12.20;;;7.15;;
37203;SDS011;23098;48.054;10.636;2024-03-07T01:15:51;12.85;;;6.90;;
37203;SDS011;23098;48.054;10.636;2024-03-07T01:18:18;14.85;;;7.50;;
37203;SDS011;23098;48.054;10.636;2024-03-07T01:20:43;14.30;;;7.28;;
37203;SDS011;23098;48.054;10.636;2024-03-07T01:23:09;14.10;;;7.47;;
37203;SDS011;23098;48.054;10.636;2024-03-07T01:25:35;14.95;;;7.78;;
37203;SDS011;23098;48.054;10.636;2024-03-07T01:28:00;12.15;;;6.63;;
37203;SDS011;23098;48.054;10.636;2024-03-07T01:30:26;16.48;;;8.15;;
37203;SDS011;23098;48.054;10.636;2024-03-07T01:32:53;12.93;;;7.05;;
37203;SDS011;23098;48.054;10.636;2024-03-07T01:35:20;14.93;;;7.95;;
37203;SDS011;23098;48.054;10.636;2024-03-07T01:37:45;16.20;;;7.57;;
37203;SDS011;23098;48.054;10.636;2024-03-07T01:40:11;13.40;;;7.50;;
37203;SDS011;23098;48.054;10.636;2024-03-07T01:42:37;12.98;;;7.47;;
37203;SDS011;23098;48.054;10.636;2024-03-07T01:45:02;13.43;;;7.63;;
37203;SDS011;23098;48.054;10.636;2024-03-07T01:47:28;15.68;;;7.40;;
37203;SDS011;23098;48.054;10.636;2024-03-07T01:49:54;16.10;;;8.38;;
37203;SDS011;23098;48.054;10.636;2024-03-07T01:52:20;17.23;;;7.63;;
37203;SDS011;23098;48.054;10.636;2024-03-07T01:54:47;16.48;;;7.47;;
37203;SDS011;23098;48.054;10.636;2024-03-07T01:57:13;19.58;;;8.40;;
37203;SDS011;23098;48.054;10.636;2024-03-07T01:59:41;15.27;;;7.30;;
37203;SDS011;23098;48.054;10.636;2024-03-07T02:02:08;14.98;;;7.38;;
37203;SDS011;23098;48.054;10.636;2024-03-07T02:04:33;18.17;;;8.13;;
37203;SDS011;23098;48.054;10.636;2024-03-07T02:07:00;16.33;;;7.88;;
37203;SDS011;23098;48.054;10.636;2024-03-07T02:09:26;21.45;;;8.32;;
37203;SDS011;23098;48.054;10.636;2024-03-07T02:11:51;19.70;;;8.52;;
37203;SDS011;23098;48.054;10.636;2024-03-07T02:14:17;18.08;;;7.55;;
37203;SDS011;23098;48.054;10.636;2024-03-07T02:16:42;18.95;;;8.18;;
37203;SDS011;23098;48.054;10.636;2024-03-07T02:19:10;20.55;;;8.20;;
37203;SDS011;23098;48.054;10.636;2024-03-07T02:24:05;19.42;;;7.85;;
37203;SDS011;23098;48.054;10.636;2024-03-07T02:26:31;24.50;;;7.40;;
37203;SDS011;23098;48.054;10.636;2024-03-07T02:28:56;22.00;;;8.18;;
37203;SDS011;23098;48.054;10.636;2024-03-07T02:31:22;19.75;;;8.50;;
37203;SDS011;23098;48.054;10.636;2024-03-07T02:33:59;20.40;;;8.32;;
37203;SDS011;23098;48.054;10.636;2024-03-07T02:36:26;22.00;;;7.93;;
37203;SDS011;23098;48.054;10.636;2024-03-07T02:38:52;18.08;;;8.00;;
37203;SDS011;23098;48.054;10.636;2024-03-07T02:41:17;22.33;;;7.93;;
37203;SDS011;23098;48.054;10.636;2024-03-07T02:43:43;20.48;;;7.80;;
37203;SDS011;23098;48.054;10.636;2024-03-07T02:46:08;21.73;;;8.45;;
37203;SDS011;23098;48.054;10.636;2024-03-07T02:48:36;20.50;;;8.00;;
37203;SDS011;23098;48.054;10.636;2024-03-07T02:51:02;23.40;;;8.45;;
37203;SDS011;23098;48.054;10.636;2024-03-07T02:53:30;25.73;;;9.10;;
37203;SDS011;23098;48.054;10.636;2024-03-07T02:55:57;25.13;;;9.68;;
37203;SDS011;23098;48.054;10.636;2024-03-07T02:58:23;25.63;;;9.45;;
37203;SDS011;23098;48.054;10.636;2024-03-07T03:00:49;23.05;;;9.18;;
37203;SDS011;23098;48.054;10.636;2024-03-07T03:03:25;23.85;;;8.85;;
37203;SDS011;23098;48.054;10.636;2024-03-07T03:05:56;24.80;;;9.40;;
37203;SDS011;23098;48.054;10.636;2024-03-07T03:08:22;29.98;;;9.75;;
37203;SDS011;23098;48.054;10.636;2024-03-07T03:10:48;27.27;;;9.73;;
37203;SDS011;23098;48.054;10.636;2024-03-07T03:13:16;28.20;;;9.85;;
37203;SDS011;23098;48.054;10.636;2024-03-07T03:15:42;29.60;;;10.15;;
37203;SDS011;23098;48.054;10.636;2024-03-07T03:18:07;24.02;;;8.35;;
37203;SDS011;23098;48.054;10.636;2024-03-07T03:20:34;27.98;;;9.68;;
37203;SDS011;23098;48.054;10.636;2024-03-07T03:23:03;22.05;;;9.05;;
37203;SDS011;23098;48.054;10.636;2024-03-07T03:25:30;21.77;;;8.90;;
37203;SDS011;23098;48.054;10.636;2024-03-07T03:28:00;23.15;;;9.52;;
37203;SDS011;23098;48.054;10.636;2024-03-07T03:30:29;24.25;;;9.30;;
37203;SDS011;23098;48.054;10.636;2024-03-07T03:32:55;23.35;;;9.20;;
37203;SDS011;23098;48.054;10.636;2024-03-07T03:35:20;23.58;;;9.15;;
37203;SDS011;23098;48.054;10.636;2024-03-07T03:37:46;19.83;;;8.38;;
37203;SDS011;23098;48.054;10.636;2024-03-07T03:40:11;24.02;;;9.98;;
37203;SDS011;23098;48.054;10.636;2024-03-07T03:42:41;25.65;;;9.00;;
37203;SDS011;23098;48.054;10.636;2024-03-07T03:45:08;21.25;;;8.85;;
37203;SDS011;23098;48.054;10.636;2024-03-07T03:47:34;21.63;;;9.40;;
37203;SDS011;23098;48.054;10.636;2024-03-07T03:50:04;23.60;;;9.77;;
37203;SDS011;23098;48.054;10.636;2024-03-07T03:52:30;23.80;;;9.70;;
37203;SDS011;23098;48.054;10.636;2024-03-07T03:54:57;20.85;;;9.18;;
37203;SDS011;23098;48.054;10.636;2024-03-07T03:57:25;23.45;;;10.07;;
37203;SDS011;23098;48.054;10.636;2024-03-07T03:59:53;20.23;;;8.88;;
37203;SDS011;23098;48.054;10.636;2024-03-07T04:02:19;21.77;;;9.32;;
37203;SDS011;23098;48.054;10.636;2024-03-07T04:04:47;23.98;;;9.88;;
37203;SDS011;23098;48.054;10.636;2024-03-07T04:07:13;27.10;;;10.05;;
37203;SDS011;23098;48.054;10.636;2024-03-07T04:09:40;26.02;;;9.75;;
37203;SDS011;23098;48.054;10.636;2024-03-07T04:12:06;23.88;;;9.93;;
37203;SDS011;23098;48.054;10.636;2024-03-07T04:14:35;25.08;;;9.30;;
37203;SDS011;23098;48.054;10.636;2024-03-07T04:17:07;28.85;;;11.25;;
37203;SDS011;23098;48.054;10.636;2024-03-07T04:19:34;28.90;;;10.45;;
37203;SDS011;23098;48.054;10.636;2024-03-07T04:22:00;24.30;;;9.90;;
37203;SDS011;23098;48.054;10.636;2024-03-07T04:24:28;24.58;;;10.18;;
37203;SDS011;23098;48.054;10.636;2024-03-07T04:26:54;27.20;;;9.93;;
37203;SDS011;23098;48.054;10.636;2024-03-07T04:29:20;26.98;;;10.30;;
37203;SDS011;23098;48.054;10.636;2024-03-07T04:31:45;26.90;;;10.60;;
37203;SDS011;23098;48.054;10.636;2024-03-07T04:34:11;28.73;;;11.40;;
37203;SDS011;23098;48.054;10.636;2024-03-07T04:36:36;27.35;;;10.57;;
37203;SDS011;23098;48.054;10.636;2024-03-07T04:39:02;25.98;;;10.70;;
37203;SDS011;23098;48.054;10.636;2024-03-07T04:41:29;29.23;;;10.15;;
37203;SDS011;23098;48.054;10.636;2024-03-07T04:43:55;27.63;;;10.57;;
37203;SDS011;23098;48.054;10.636;2024-03-07T04:46:20;27.90;;;11.70;;
37203;SDS011;23098;48.054;10.636;2024-03-07T04:48:46;24.80;;;10.45;;
37203;SDS011;23098;48.054;10.636;2024-03-07T04:51:11;23.63;;;10.00;;
37203;SDS011;23098;48.054;10.636;2024-03-07T04:53:37;28.73;;;11.30;;
37203;SDS011;23098;48.054;10.636;2024-03-07T04:56:07;22.35;;;8.98;;
37203;SDS011;23098;48.054;10.636;2024-03-07T04:58:34;18.73;;;8.93;;
37203;SDS011;23098;48.054;10.636;2024-03-07T05:01:00;21.92;;;9.25;;
37203;SDS011;23098;48.054;10.636;2024-03-07T05:03:27;20.95;;;9.38;;
37203;SDS011;23098;48.054;10.636;2024-03-07T05:05:52;24.50;;;9.45;;
37203;SDS011;23098;48.054;10.636;2024-03-07T05:08:18;25.52;;;9.82;;
37203;SDS011;23098;48.054;10.636;2024-03-07T05:10:43;24.05;;;9.80;;
37203;SDS011;23098;48.054;10.636;2024-03-07T05:13:09;28.75;;;10.52;;
37203;SDS011;23098;48.054;10.636;2024-03-07T05:15:35;28.48;;;10.98;;
37203;SDS011;23098;48.054;10.636;2024-03-07T05:18:01;27.42;;;10.35;;
37203;SDS011;23098;48.054;10.636;2024-03-07T05:20:27;28.80;;;11.00;;
37203;SDS011;23098;48.054;10.636;2024-03-07T05:22:53;27.88;;;10.43;;
37203;SDS011;23098;48.054;10.636;2024-03-07T05:25:19;28.85;;;11.50;;
37203;SDS011;23098;48.054;10.636;2024-03-07T05:27:47;28.30;;;11.70;;
37203;SDS011;23098;48.054;10.636;2024-03-07T05:30:16;29.33;;;11.07;;
37203;SDS011;23098;48.054;10.636;2024-03-07T05:32:42;36.00;;;13.45;;
37203;SDS011;23098;48.054;10.636;2024-03-07T05:35:08;36.40;;;13.90;;
37203;SDS011;23098;48.054;10.636;2024-03-07T05:37:34;32.70;;;13.20;;
37203;SDS011;23098;48.054;10.636;2024-03-07T05:39:59;35.70;;;13.48;;
37203;SDS011;23098;48.054;10.636;2024-03-07T05:42:25;32.95;;;12.70;;
37203;SDS011;23098;48.054;10.636;2024-03-07T05:44:51;30.73;;;12.25;;
37203;SDS011;23098;48.054;10.636;2024-03-07T05:47:18;36.30;;;13.52;;
37203;SDS011;23098;48.054;10.636;2024-03-07T05:49:44;30.27;;;11.95;;
37203;SDS011;23098;48.054;10.636;2024-03-07T05:52:10;31.80;;;12.80;;
37203;SDS011;23098;48.054;10.636;2024-03-07T05:54:35;32.97;;;12.63;;
37203;SDS011;23098;48.054;10.636;2024-03-07T05:57:01;31.13;;;11.85;;
37203;SDS011;23098;48.054;10.636;2024-03-07T05:59:27;32.47;;;11.80;;
37203;SDS011;23098;48.054;10.636;2024-03-07T06:01:56;35.33;;;11.95;;
37203;SDS011;23098;48.054;10.636;2024-03-07T06:04:22;32.88;;;11.82;;
37203;SDS011;23098;48.054;10.636;2024-03-07T06:06:48;34.20;;;12.00;;
37203;SDS011;23098;48.054;10.636;2024-03-07T06:09:13;32.15;;;11.85;;
37203;SDS011;23098;48.054;10.636;2024-03-07T06:11:39;31.17;;;11.63;;
37203;SDS011;23098;48.054;10.636;2024-03-07T06:14:09;31.27;;;12.30;;
37203;SDS011;23098;48.054;10.636;2024-03-07T06:16:37;35.60;;;12.95;;
37203;SDS011;23098;48.054;10.636;2024-03-07T06:19:04;29.85;;;12.45;;
37203;SDS011;23098;48.054;10.636;2024-03-07T06:21:32;30.35;;;12.27;;
37203;SDS011;23098;48.054;10.636;2024-03-07T06:23:59;32.45;;;11.45;;
37203;SDS011;23098;48.054;10.636;2024-03-07T06:26:28;29.70;;;11.85;;
37203;SDS011;23098;48.054;10.636;2024-03-07T06:29:02;30.67;;;12.10;;
37203;SDS011;23098;48.054;10.636;2024-03-07T06:31:30;35.53;;;13.02;;
37203;SDS011;23098;48.054;10.636;2024-03-07T06:33:55;34.70;;;12.88;;
37203;SDS011;23098;48.054;10.636;2024-03-07T06:36:21;31.80;;;12.48;;
37203;SDS011;23098;48.054;10.636;2024-03-07T06:38:47;34.45;;;13.23;;
37203;SDS011;23098;48.054;10.636;2024-03-07T06:41:13;33.47;;;12.75;;
37203;SDS011;23098;48.054;10.636;2024-03-07T06:43:39;39.28;;;15.02;;
37203;SDS011;23098;48.054;10.636;2024-03-07T06:46:04;47.10;;;20.65;;
37203;SDS011;23098;48.054;10.636;2024-03-07T06:48:31;51.53;;;23.30;;
37203;SDS011;23098;48.054;10.636;2024-03-07T06:50:57;61.08;;;27.42;;
37203;SDS011;23098;48.054;10.636;2024-03-07T06:53:22;61.15;;;28.58;;
37203;SDS011;23098;48.054;10.636;2024-03-07T06:55:51;59.47;;;26.45;;
37203;SDS011;23098;48.054;10.636;2024-03-07T06:58:18;52.90;;;22.05;;
37203;SDS011;23098;48.054;10.636;2024-03-07T07:00:47;37.50;;;16.42;;
37203;SDS011;23098;48.054;10.636;2024-03-07T07:03:23;55.90;;;24.48;;
37203;SDS011;23098;48.054;10.636;2024-03-07T07:05:49;54.95;;;24.83;;
37203;SDS011;23098;48.054;10.636;2024-03-07T07:08:15;53.00;;;23.30;;
37203;SDS011;23098;48.054;10.636;2024-03-07T07:10:41;59.20;;;26.17;;
37203;SDS011;23098;48.054;10.636;2024-03-07T07:13:07;69.35;;;28.50;;
37203;SDS011;23098;48.054;10.636;2024-03-07T07:15:33;30.92;;;14.85;;
37203;SDS011;23098;48.054;10.636;2024-03-07T07:17:59;48.92;;;21.45;;
37203;SDS011;23098;48.054;10.636;2024-03-07T07:20:27;58.05;;;24.10;;
37203;SDS011;23098;48.054;10.636;2024-03-07T07:22:52;59.45;;;23.92;;
37203;SDS011;23098;48.054;10.636;2024-03-07T07:25:18;52.42;;;22.70;;
37203;SDS011;23098;48.054;10.636;2024-03-07T07:27:51;59.63;;;25.45;;
37203;SDS011;23098;48.054;10.636;2024-03-07T07:30:20;40.05;;;17.40;;
37203;SDS011;23098;48.054;10.636;2024-03-07T07:32:52;41.15;;;16.48;;
37203;SDS011;23098;48.054;10.636;2024-03-07T07:35:18;64.88;;;27.63;;
37203;SDS011;23098;48.054;10.636;2024-03-07T07:37:45;68.20;;;26.08;;
37203;SDS011;23098;48.054;10.636;2024-03-07T07:40:15;71.68;;;28.70;;
37203;SDS011;23098;48.054;10.636;2024-03-07T07:42:43;62.35;;;22.80;;
37203;SDS011;23098;48.054;10.636;2024-03-07T07:45:11;68.95;;;28.55;;
37203;SDS011;23098;48.054;10.636;2024-03-07T07:47:38;64.63;;;27.75;;
37203;SDS011;23098;48.054;10.636;2024-03-07T07:50:06;72.60;;;28.10;;
37203;SDS011;23098;48.054;10.636;2024-03-07T07:52:46;60.67;;;23.90;;
37203;SDS011;23098;48.054;10.636;2024-03-07T07:55:18;66.90;;;28.23;;
37203;SDS011;23098;48.054;10.636;2024-03-07T07:57:55;73.88;;;29.42;;
37203;SDS011;23098;48.054;10.636;2024-03-07T08:00:22;70.83;;;27.53;;
37203;SDS011;23098;48.054;10.636;2024-03-07T08:02:57;54.03;;;23.25;;
37203;SDS011;23098;48.054;10.636;2024-03-07T08:05:27;38.45;;;17.63;;
37203;SDS011;23098;48.054;10.636;2024-03-07T08:07:55;65.78;;;27.88;;
37203;SDS011;23098;48.054;10.636;2024-03-07T08:10:26;52.13;;;22.30;;
37203;SDS011;23098;48.054;10.636;2024-03-07T08:12:59;56.47;;;25.30;;
37203;SDS011;23098;48.054;10.636;2024-03-07T08:15:27;62.35;;;28.08;;
37203;SDS011;23098;48.054;10.636;2024-03-07T08:17:53;61.90;;;26.23;;
37203;SDS011;23098;48.054;10.636;2024-03-07T08:20:23;60.10;;;26.02;;
37203;SDS011;23098;48.054;10.636;2024-03-07T08:22:51;36.55;;;16.48;;
37203;SDS011;23098;48.054;10.636;2024-03-07T08:25:18;57.30;;;24.95;;
37203;SDS011;23098;48.054;10.636;2024-03-07T08:27:46;61.10;;;24.77;;
37203;SDS011;23098;48.054;10.636;2024-03-07T08:30:13;48.50;;;18.05;;
37203;SDS011;23098;48.054;10.636;2024-03-07T08:32:43;28.30;;;14.30;;
37203;SDS011;23098;48.054;10.636;2024-03-07T08:35:12;43.58;;;18.73;;
37203;SDS011;23098;48.054;10.636;2024-03-07T08:37:47;53.20;;;23.48;;
37203;SDS011;23098;48.054;10.636;2024-03-07T08:40:21;66.28;;;27.95;;
37203;SDS011;23098;48.054;10.636;2024-03-07T08:42:48;59.50;;;25.27;;
37203;SDS011;23098;48.054;10.636;2024-03-07T08:45:18;59.50;;;26.05;;
37203;SDS011;23098;48.054;10.636;2024-03-07T08:47:47;50.85;;;21.58;;
37203;SDS011;23098;48.054;10.636;2024-03-07T08:50:14;62.85;;;26.13;;
37203;SDS011;23098;48.054;10.636;2024-03-07T08:52:41;63.63;;;26.52;;
37203;SDS011;23098;48.054;10.636;2024-03-07T08:55:07;60.33;;;25.88;;
37203;SDS011;23098;48.054;10.636;2024-03-07T08:57:37;45.47;;;19.20;;
37203;SDS011;23098;48.054;10.636;2024-03-07T09:00:03;62.78;;;26.52;;
37203;SDS011;23098;48.054;10.636;2024-03-07T09:02:33;67.18;;;28.02;;
37203;SDS011;23098;48.054;10.636;2024-03-07T09:05:00;71.35;;;29.60;;
37203;SDS011;23098;48.054;10.636;2024-03-07T09:07:29;84.65;;;31.77;;
37203;SDS011;23098;48.054;10.636;2024-03-07T09:09:55;79.70;;;31.23;;
37203;SDS011;23098;48.054;10.636;2024-03-07T09:12:20;67.80;;;27.60;;
37203;SDS011;23098;48.054;10.636;2024-03-07T09:14:46;66.90;;;30.33;;
37203;SDS011;23098;48.054;10.636;2024-03-07T09:17:12;58.20;;;25.25;;
37203;SDS011;23098;48.054;10.636;2024-03-07T09:19:39;68.40;;;28.88;;
37203;SDS011;23098;48.054;10.636;2024-03-07T09:22:06;61.35;;;26.38;;
37203;SDS011;23098;48.054;10.636;2024-03-07T09:24:33;49.70;;;20.60;;
37203;SDS011;23098;48.054;10.636;2024-03-07T09:27:00;62.70;;;27.70;;
37203;SDS011;23098;48.054;10.636;2024-03-07T09:29:26;57.80;;;25.98;;
37203;SDS011;23098;48.054;10.636;2024-03-07T09:31:52;64.00;;;27.35;;
37203;SDS011;23098;48.054;10.636;2024-03-07T09:34:19;49.03;;;20.48;;
37203;SDS011;23098;48.054;10.636;2024-03-07T09:36:48;43.95;;;18.52;;
37203;SDS011;23098;48.054;10.636;2024-03-07T09:39:15;68.35;;;27.35;;
37203;SDS011;23098;48.054;10.636;2024-03-07T09:41:41;63.65;;;27.00;;
37203;SDS011;23098;48.054;10.636;2024-03-07T09:44:14;53.28;;;19.33;;
37203;SDS011;23098;48.054;10.636;2024-03-07T09:46:51;55.38;;;23.67;;
37203;SDS011;23098;48.054;10.636;2024-03-07T09:49:19;60.60;;;24.20;;
37203;SDS011;23098;48.054;10.636;2024-03-07T09:51:46;57.35;;;23.35;;
37203;SDS011;23098;48.054;10.636;2024-03-07T09:54:17;59.88;;;26.73;;
37203;SDS011;23098;48.054;10.636;2024-03-07T09:56:44;65.50;;;28.45;;
37203;SDS011;23098;48.054;10.636;2024-03-07T09:59:11;68.13;;;28.90;;
37203;SDS011;23098;48.054;10.636;2024-03-07T10:01:38;52.95;;;22.45;;
37203;SDS011;23098;48.054;10.636;2024-03-07T10:04:07;64.85;;;26.95;;
37203;SDS011;23098;48.054;10.636;2024-03-07T10:06:37;61.42;;;25.60;;
37203;SDS011;23098;48.054;10.636;2024-03-07T10:09:04;40.05;;;17.85;;
37203;SDS011;23098;48.054;10.636;2024-03-07T10:11:32;51.10;;;22.02;;
37203;SDS011;23098;48.054;10.636;2024-03-07T10:14:02;51.35;;;23.92;;
37203;SDS011;23098;48.054;10.636;2024-03-07T10:16:32;50.92;;;22.40;;
37203;SDS011;23098;48.054;10.636;2024-03-07T10:18:57;59.28;;;26.95;;
37203;SDS011;23098;48.054;10.636;2024-03-07T10:21:25;57.30;;;24.77;;
37203;SDS011;23098;48.054;10.636;2024-03-07T10:23:50;47.90;;;22.38;;
37203;SDS011;23098;48.054;10.636;2024-03-07T10:26:31;48.85;;;21.55;;
37203;SDS011;23098;48.054;10.636;2024-03-07T10:29:00;54.17;;;25.08;;
37203;SDS011;23098;48.054;10.636;2024-03-07T10:31:31;65.50;;;29.92;;
37203;SDS011;23098;48.054;10.636;2024-03-07T10:34:01;54.85;;;27.77;;
37203;SDS011;23098;48.054;10.636;2024-03-07T10:36:30;50.60;;;24.25;;
37203;SDS011;23098;48.054;10.636;2024-03-07T10:39:00;43.80;;;22.20;;
37203;SDS011;23098;48.054;10.636;2024-03-07T10:41:47;49.05;;;20.85;;
37203;SDS011;23098;48.054;10.636;2024-03-07T10:44:35;61.00;;;27.23;;
37203;SDS011;23098;48.054;10.636;2024-03-07T10:47:03;35.33;;;16.85;;
37203;SDS011;23098;48.054;10.636;2024-03-07T10:49:31;52.45;;;24.30;;
37203;SDS011;23098;48.054;10.636;2024-03-07T10:52:02;52.50;;;23.95;;
37203;SDS011;23098;48.054;10.636;2024-03-07T10:54:51;61.35;;;26.50;;
37203;SDS011;23098;48.054;10.636;2024-03-07T11:00:06;67.95;;;28.88;;
37203;SDS011;23098;48.054;10.636;2024-03-07T11:02:55;55.20;;;25.23;;
37203;SDS011;23098;48.054;10.636;2024-03-07T11:05:21;51.20;;;22.73;;
37203;SDS011;23098;48.054;10.636;2024-03-07T11:07:58;58.53;;;26.30;;
37203;SDS011;23098;48.054;10.636;2024-03-07T11:10:24;45.40;;;20.30;;
37203;SDS011;23098;48.054;10.636;2024-03-07T11:12:50;59.97;;;24.10;;
37203;SDS011;23098;48.054;10.636;2024-03-07T11:15:17;58.45;;;24.48;;
37203;SDS011;23098;48.054;10.636;2024-03-07T11:17:47;24.80;;;10.80;;
37203;SDS011;23098;48.054;10.636;2024-03-07T11:20:48;39.53;;;18.63;;
37203;SDS011;23098;48.054;10.636;2024-03-07T11:23:30;56.15;;;26.88;;
37203;SDS011;23098;48.054;10.636;2024-03-07T11:26:14;38.08;;;17.20;;
37203;SDS011;23098;48.054;10.636;2024-03-07T11:28:40;38.25;;;17.20;;
37203;SDS011;23098;48.054;10.636;2024-03-07T11:31:14;58.40;;;26.58;;
37203;SDS011;23098;48.054;10.636;2024-03-07T11:36:45;35.47;;;15.13;;
37203;SDS011;23098;48.054;10.636;2024-03-07T11:44:46;45.38;;;20.90;;
37203;SDS011;23098;48.054;10.636;2024-03-07T11:47:12;58.13;;;27.42;;
37203;SDS011;23098;48.054;10.636;2024-03-07T11:49:38;60.72;;;25.98;;
37203;SDS011;23098;48.054;10.636;2024-03-07T11:52:04;40.50;;;19.15;;
37203;SDS011;23098;48.054;10.636;2024-03-07T11:54:36;41.72;;;19.08;;
37203;SDS011;23098;48.054;10.636;2024-03-07T11:57:05;34.05;;;15.07;;
37203;SDS011;23098;48.054;10.636;2024-03-07T11:59:37;36.90;;;16.00;;
37203;SDS011;23098;48.054;10.636;2024-03-07T12:02:04;58.45;;;26.40;;
37203;SDS011;23098;48.054;10.636;2024-03-07T12:04:41;56.05;;;24.95;;
37203;SDS011;23098;48.054;10.636;2024-03-07T12:07:07;43.53;;;20.58;;
37203;SDS011;23098;48.054;10.636;2024-03-07T12:09:35;37.75;;;16.88;;
37203;SDS011;23098;48.054;10.636;2024-03-07T12:12:05;57.17;;;26.42;;
37203;SDS011;23098;48.054;10.636;2024-03-07T12:14:31;43.47;;;20.30;;
37203;SDS011;23098;48.054;10.636;2024-03-07T12:16:59;48.55;;;22.20;;
37203;SDS011;23098;48.054;10.636;2024-03-07T12:19:25;51.22;;;17.70;;
37203;SDS011;23098;48.054;10.636;2024-03-07T12:21:55;50.55;;;20.95;;
37203;SDS011;23098;48.054;10.636;2024-03-07T12:24:21;43.10;;;18.33;;
37203;SDS011;23098;48.054;10.636;2024-03-07T12:26:47;24.50;;;11.45;;
37203;SDS011;23098;48.054;10.636;2024-03-07T12:29:13;50.03;;;23.17;;
37203;SDS011;23098;48.054;10.636;2024-03-07T12:31:39;21.30;;;10.68;;
37203;SDS011;23098;48.054;10.636;2024-03-07T12:34:05;27.58;;;13.73;;
37203;SDS011;23098;48.054;10.636;2024-03-07T12:36:31;38.40;;;15.35;;
37203;SDS011;23098;48.054;10.636;2024-03-07T12:39:10;42.22;;;17.58;;
37203;SDS011;23098;48.054;10.636;2024-03-07T12:42:00;31.60;;;12.18;;
37203;SDS011;23098;48.054;10.636;2024-03-07T12:44:27;50.55;;;22.08;;
37203;SDS011;23098;48.054;10.636;2024-03-07T12:47:04;51.13;;;24.13;;
37203;SDS011;23098;48.054;10.636;2024-03-07T12:49:29;26.40;;;12.50;;
37203;SDS011;23098;48.054;10.636;2024-03-07T12:51:55;27.80;;;12.13;;
37203;SDS011;23098;48.054;10.636;2024-03-07T12:54:24;46.25;;;19.48;;
37203;SDS011;23098;48.054;10.636;2024-03-07T12:56:50;44.97;;;20.77;;
37203;SDS011;23098;48.054;10.636;2024-03-07T12:59:16;40.35;;;19.83;;
37203;SDS011;23098;48.054;10.636;2024-03-07T13:01:42;39.70;;;18.42;;
37203;SDS011;23098;48.054;10.636;2024-03-07T13:04:10;38.13;;;19.15;;
37203;SDS011;23098;48.054;10.636;2024-03-07T13:06:36;24.77;;;11.90;;
37203;SDS011;23098;48.054;10.636;2024-03-07T13:09:02;32.20;;;14.10;;
37203;SDS011;23098;48.054;10.636;2024-03-07T13:11:35;24.40;;;11.10;;
37203;SDS011;23098;48.054;10.636;2024-03-07T13:14:11;53.45;;;24.75;;
37203;SDS011;23098;48.054;10.636;2024-03-07T13:16:37;36.42;;;12.23;;
37203;SDS011;23098;48.054;10.636;2024-03-07T13:19:02;50.40;;;24.42;;
37203;SDS011;23098;48.054;10.636;2024-03-07T13:21:29;30.90;;;14.57;;
37203;SDS011;23098;48.054;10.636;2024-03-07T13:24:00;36.67;;;17.70;;
37203;SDS011;23098;48.054;10.636;2024-03-07T13:26:26;47.10;;;21.80;;
37203;SDS011;23098;48.054;10.636;2024-03-07T13:28:55;24.35;;;11.23;;
37203;SDS011;23098;48.054;10.636;2024-03-07T13:31:21;46.70;;;20.70;;
37203;SDS011;23098;48.054;10.636;2024-03-07T13:33:48;45.20;;;20.17;;
37203;SDS011;23098;48.054;10.636;2024-03-07T13:36:16;52.83;;;22.42;;
37203;SDS011;23098;48.054;10.636;2024-03-07T13:38:48;46.05;;;22.05;;
37203;SDS011;23098;48.054;10.636;2024-03-07T13:41:16;41.67;;;19.38;;
37203;SDS011;23098;48.054;10.636;2024-03-07T13:43:45;35.17;;;17.92;;
37203;SDS011;23098;48.054;10.636;2024-03-07T13:46:11;40.72;;;19.63;;
37203;SDS011;23098;48.054;10.636;2024-03-07T13:48:40;45.45;;;21.92;;
37203;SDS011;23098;48.054;10.636;2024-03-07T13:51:07;24.25;;;11.18;;
37203;SDS011;23098;48.054;10.636;2024-03-07T13:53:33;41.13;;;20.48;;
37203;SDS011;23098;48.054;10.636;2024-03-07T14:01:11;43.05;;;20.35;;
37203;SDS011;23098;48.054;10.636;2024-03-07T14:04:24;26.02;;;12.02;;
37203;SDS011;23098;48.054;10.636;2024-03-07T14:10:16;34.92;;;17.27;;
37203;SDS011;23098;48.054;10.636;2024-03-07T14:13:16;36.35;;;17.23;;
37203;SDS011;23098;48.054;10.636;2024-03-07T14:16:09;31.08;;;13.80;;
37203;SDS011;23098;48.054;10.636;2024-03-07T14:19:11;33.33;;;16.40;;
37203;SDS011;23098;48.054;10.636;2024-03-07T14:25:09;30.13;;;13.52;;
37203;SDS011;23098;48.054;10.636;2024-03-07T14:30:51;36.85;;;17.65;;
37203;SDS011;23098;48.054;10.636;2024-03-07T14:33:19;26.50;;;13.70;;
37203;SDS011;23098;48.054;10.636;2024-03-07T14:36:02;28.63;;;13.75;;
37203;SDS011;23098;48.054;10.636;2024-03-07T14:38:51;23.23;;;11.02;;
37203;SDS011;23098;48.054;10.636;2024-03-07T14:41:20;26.38;;;14.23;;
37203;SDS011;23098;48.054;10.636;2024-03-07T14:43:50;18.70;;;9.73;;
37203;SDS011;23098;48.054;10.636;2024-03-07T14:46:17;33.85;;;14.82;;
37203;SDS011;23098;48.054;10.636;2024-03-07T14:48:43;35.92;;;16.00;;